Time;durP1;ratioP1;P1;durP2;ratioP2;P2;SDS_P1;SDS_P2;PMS_P1;PMS_P2;Temp;Humidity;BMP_temperature;BMP_pressure;BME280_temperature;BME280_humidity;BME280_pressure;Samples;Min_cycle;Max_cycle;Signal;HPM_P1;HPM_P2
2022/06/01 00:01:45;;;;;;;1.25;0.30;;;;;;;;;;5028923;28;20049;-63
2022/06/01 00:04:12;;;;;;;1.55;0.20;;;;;;;;;;5023833;28;20157;-63
2022/06/01 00:06:39;;;;;;;7.15;0.80;;;;;;;;;;5017777;28;20041;-62
2022/06/01 00:09:05;;;;;;;9.23;0.90;;;;;;;;;;5028616;28;20101;-63
2022/06/01 00:11:32;;;;;;;12.80;1.23;;;;;;;;;;5033607;28;20045;-63
2022/06/01 00:13:58;;;;;;;27.23;2.58;;;;;;;;;;5027029;28;20442;-63
2022/06/01 00:16:25;;;;;;;21.40;2.13;;;;;;;;;;5027310;28;20448;-64
2022/06/01 00:18:52;;;;;;;5.55;0.65;;;;;;;;;;5028060;28;20045;-64
2022/06/01 00:21:18;;;;;;;9.15;0.93;;;;;;;;;;5028812;28;20451;-63
2022/06/01 00:23:45;;;;;;;12.75;1.38;;;;;;;;;;5030797;28;20158;-64
2022/06/01 00:26:11;;;;;;;7.00;0.77;;;;;;;;;;5029950;28;20124;-63
2022/06/01 00:28:38;;;;;;;7.88;0.93;;;;;;;;;;5027321;28;20136;-63
2022/06/01 00:31:05;;;;;;;30.38;3.85;;;;;;;;;;5028016;28;20391;-64
2022/06/01 00:33:31;;;;;;;5.60;0.65;;;;;;;;;;5027773;28;20069;-63
2022/06/01 00:35:58;;;;;;;8.75;0.95;;;;;;;;;;5029031;28;20077;-63
2022/06/01 00:38:24;;;;;;;15.88;1.58;;;;;;;;;;5028237;28;20046;-63
2022/06/01 00:40:51;;;;;;;14.70;1.48;;;;;;;;;;5026419;28;20045;-63
2022/06/01 00:43:17;;;;;;;0.82;0.13;;;;;;;;;;5028700;28;20096;-64
2022/06/01 00:45:44;;;;;;;7.65;0.98;;;;;;;;;;5023899;28;20049;-63
2022/06/01 00:48:10;;;;;;;3.15;0.47;;;;;;;;;;5028180;28;20116;-63
2022/06/01 00:50:39;;;;;;;6.72;0.77;;;;;;;;;;5031904;28;20041;-63
2022/06/01 00:53:09;;;;;;;9.65;0.98;;;;;;;;;;5028363;28;20577;-63
2022/06/01 00:55:37;;;;;;;11.27;1.13;;;;;;;;;;5027232;28;20120;-64
2022/06/01 00:58:14;;;;;;;12.75;1.25;;;;;;;;;;5031013;28;20060;-64
2022/06/01 01:00:42;;;;;;;10.57;1.10;;;;;;;;;;5027681;28;20049;-64
2022/06/01 01:03:10;;;;;;;13.02;1.30;;;;;;;;;;5027022;28;20041;-64
2022/06/01 01:05:43;;;;;;;5.82;0.65;;;;;;;;;;5031615;28;20409;-64
2022/06/01 01:08:09;;;;;;;6.13;0.63;;;;;;;;;;5027614;28;20488;-63
2022/06/01 01:10:36;;;;;;;9.55;1.40;;;;;;;;;;5027410;28;20037;-64
2022/06/01 01:13:06;;;;;;;20.75;1.98;;;;;;;;;;5027103;28;20124;-64
2022/06/01 01:15:38;;;;;;;4.68;0.57;;;;;;;;;;5025983;28;20048;-63
2022/06/01 01:18:08;;;;;;;22.10;2.17;;;;;;;;;;5025696;28;20046;-63
2022/06/01 01:20:35;;;;;;;8.73;0.88;;;;;;;;;;5028427;28;20060;-65
2022/06/01 01:23:05;;;;;;;7.57;0.82;;;;;;;;;;5027074;28;20064;-63
2022/06/01 01:25:33;;;;;;;11.15;1.25;;;;;;;;;;5026703;28;20065;-64
2022/06/01 01:28:00;;;;;;;18.10;2.03;;;;;;;;;;5026744;28;20034;-63
2022/06/01 01:30:35;;;;;;;9.20;0.98;;;;;;;;;;5026861;28;20045;-63
2022/06/01 01:33:09;;;;;;;12.13;1.23;;;;;;;;;;5027872;28;20054;-63
2022/06/01 01:35:36;;;;;;;8.75;1.00;;;;;;;;;;5028020;28;20107;-64
2022/06/01 01:38:06;;;;;;;5.82;0.73;;;;;;;;;;5029603;28;20042;-64
2022/06/01 01:40:34;;;;;;;5.30;0.65;;;;;;;;;;5028642;28;20490;-64
2022/06/01 01:43:01;;;;;;;19.38;2.17;;;;;;;;;;5026645;28;20041;-64
2022/06/01 01:45:29;;;;;;;7.28;1.10;;;;;;;;;;5026613;28;20045;-64
2022/06/01 01:47:56;;;;;;;12.35;1.35;;;;;;;;;;5026896;28;20510;-64
2022/06/01 01:50:23;;;;;;;3.42;0.50;;;;;;;;;;5030534;28;20638;-63
2022/06/01 01:52:50;;;;;;;14.18;1.50;;;;;;;;;;5030620;28;20041;-64
2022/06/01 01:55:36;;;;;;;123.20;41.60;;;;;;;;;;5026098;28;20037;-64
2022/06/01 01:58:11;;;;;;;126.97;43.60;;;;;;;;;;5026339;28;20568;-63
2022/06/01 02:00:40;;;;;;;113.60;44.85;;;;;;;;;;5027050;28;20072;-64
2022/06/01 02:03:19;;;;;;;88.57;38.25;;;;;;;;;;5026158;28;20114;-64
2022/06/01 02:06:06;;;;;;;109.13;41.53;;;;;;;;;;5027138;28;20136;-64
2022/06/01 02:08:51;;;;;;;90.80;39.65;;;;;;;;;;5027172;28;20379;-63
2022/06/01 02:14:09;;;;;;;93.85;40.13;;;;;;;;;;5026570;28;20466;-63
2022/06/01 02:16:38;;;;;;;91.95;38.80;;;;;;;;;;5026363;28;20069;-63
2022/06/01 02:19:09;;;;;;;78.45;34.95;;;;;;;;;;5026961;28;20034;-64
2022/06/01 02:21:36;;;;;;;81.53;35.60;;;;;;;;;;5026387;28;20056;-63
2022/06/01 02:24:03;;;;;;;105.03;40.30;;;;;;;;;;5026964;28;20129;-63
2022/06/01 02:26:29;;;;;;;137.95;47.47;;;;;;;;;;5029626;28;20121;-64
2022/06/01 02:29:00;;;;;;;115.22;41.10;;;;;;;;;;5025898;28;20053;-63
2022/06/01 02:31:28;;;;;;;112.07;43.47;;;;;;;;;;5026281;28;20409;-64
2022/06/01 02:33:55;;;;;;;98.82;37.95;;;;;;;;;;5026159;28;20051;-64
2022/06/01 02:36:23;;;;;;;90.38;37.75;;;;;;;;;;5026550;28;20397;-64
2022/06/01 02:38:51;;;;;;;82.53;32.33;;;;;;;;;;5028716;28;20046;-63
2022/06/01 02:44:03;;;;;;;81.88;33.03;;;;;;;;;;5029301;28;20095;-63
2022/06/01 02:46:30;;;;;;;84.75;35.95;;;;;;;;;;5026343;28;20048;-64
2022/06/01 02:48:57;;;;;;;111.53;39.95;;;;;;;;;;5027059;28;20041;-63
2022/06/01 02:51:24;;;;;;;113.15;40.10;;;;;;;;;;5029299;28;20049;-63
2022/06/01 02:53:50;;;;;;;105.35;38.90;;;;;;;;;;5032514;28;20055;-63
2022/06/01 02:56:17;;;;;;;104.22;39.05;;;;;;;;;;5031470;28;20128;-64
2022/06/01 02:58:43;;;;;;;86.95;35.10;;;;;;;;;;5029703;28;20038;-64
2022/06/01 03:01:11;;;;;;;104.60;39.72;;;;;;;;;;5029697;28;20131;-63
2022/06/01 03:03:39;;;;;;;117.95;41.05;;;;;;;;;;5029476;28;20037;-64
2022/06/01 03:06:06;;;;;;;98.88;39.60;;;;;;;;;;5030627;28;20042;-63
2022/06/01 03:08:33;;;;;;;108.75;40.88;;;;;;;;;;5034697;28;20125;-63
2022/06/01 03:10:59;;;;;;;111.10;41.72;;;;;;;;;;5029069;28;20073;-63
2022/06/01 03:13:26;;;;;;;109.03;43.15;;;;;;;;;;5032078;28;20144;-63
2022/06/01 03:15:53;;;;;;;113.95;43.10;;;;;;;;;;5029637;28;20099;-63
2022/06/01 03:18:19;;;;;;;124.07;47.08;;;;;;;;;;5033247;28;20060;-63
2022/06/01 03:20:46;;;;;;;96.57;39.08;;;;;;;;;;5033322;28;20053;-64
2022/06/01 03:23:13;;;;;;;96.07;41.40;;;;;;;;;;5030456;28;20049;-64
2022/06/01 03:25:39;;;;;;;83.97;38.55;;;;;;;;;;5028548;28;20116;-64
2022/06/01 03:28:06;;;;;;;88.20;37.63;;;;;;;;;;5028821;28;20038;-64
2022/06/01 03:30:33;;;;;;;113.97;45.88;;;;;;;;;;5029402;28;20060;-64
2022/06/01 03:33:00;;;;;;;107.70;45.88;;;;;;;;;;5029984;28;20081;-64
2022/06/01 03:35:29;;;;;;;131.57;52.35;;;;;;;;;;5032898;28;20045;-64
2022/06/01 03:37:57;;;;;;;107.82;44.78;;;;;;;;;;5029898;28;20120;-63
2022/06/01 03:40:25;;;;;;;98.72;41.47;;;;;;;;;;5028772;28;20099;-64
2022/06/01 03:42:52;;;;;;;120.38;48.45;;;;;;;;;;5028919;28;20120;-64
2022/06/01 03:48:03;;;;;;;103.63;40.92;;;;;;;;;;5029027;28;20066;-64
2022/06/01 03:50:30;;;;;;;92.28;39.95;;;;;;;;;;5032356;28;20163;-64
2022/06/01 03:52:56;;;;;;;120.55;45.45;;;;;;;;;;5028580;28;20041;-64
2022/06/01 03:55:23;;;;;;;101.82;40.75;;;;;;;;;;5027122;28;20492;-64
2022/06/01 03:57:50;;;;;;;106.10;43.42;;;;;;;;;;5028334;28;20461;-64
2022/06/01 04:00:20;;;;;;;125.95;47.38;;;;;;;;;;5028657;28;20127;-64
2022/06/01 04:02:47;;;;;;;138.45;49.58;;;;;;;;;;5030769;28;20092;-64
2022/06/01 04:05:14;;;;;;;126.45;48.47;;;;;;;;;;5030745;28;20046;-64
2022/06/01 04:07:40;;;;;;;121.82;45.75;;;;;;;;;;5028483;28;20047;-64
2022/06/01 04:10:08;;;;;;;129.85;47.30;;;;;;;;;;5028203;28;20033;-64
2022/06/01 04:12:34;;;;;;;107.63;45.47;;;;;;;;;;5028990;28;20065;-64
2022/06/01 04:15:01;;;;;;;117.80;46.03;;;;;;;;;;5030346;28;20046;-64
2022/06/01 04:17:28;;;;;;;121.50;45.17;;;;;;;;;;5031828;28;20037;-64
2022/06/01 04:19:54;;;;;;;112.30;45.20;;;;;;;;;;5028707;28;20557;-63
2022/06/01 04:22:21;;;;;;;138.80;51.63;;;;;;;;;;5026968;28;20073;-63
2022/06/01 04:24:49;;;;;;;141.32;50.72;;;;;;;;;;5027401;28;20067;-64
2022/06/01 04:27:16;;;;;;;141.45;50.17;;;;;;;;;;5028201;28;20124;-64
2022/06/01 04:29:42;;;;;;;127.32;47.58;;;;;;;;;;5032095;28;20412;-63
2022/06/01 04:32:11;;;;;;;133.57;48.38;;;;;;;;;;5032514;28;20128;-63
2022/06/01 04:34:37;;;;;;;126.53;50.05;;;;;;;;;;5028690;28;20037;-64
2022/06/01 04:37:04;;;;;;;135.40;48.55;;;;;;;;;;5028118;28;20049;-63
2022/06/01 04:39:31;;;;;;;109.32;43.88;;;;;;;;;;5027956;28;20132;-63
2022/06/01 04:41:57;;;;;;;117.95;47.00;;;;;;;;;;5029974;28;20077;-63
2022/06/01 04:44:25;;;;;;;136.65;49.92;;;;;;;;;;5031393;28;20068;-63
2022/06/01 04:46:52;;;;;;;134.18;49.85;;;;;;;;;;5027827;28;20129;-64
2022/06/01 04:49:18;;;;;;;102.97;44.63;;;;;;;;;;5027550;28;20037;-63
2022/06/01 04:51:45;;;;;;;103.43;43.05;;;;;;;;;;5027590;28;20038;-64
2022/06/01 04:54:11;;;;;;;115.78;45.38;;;;;;;;;;5026058;28;20406;-63
2022/06/01 04:56:38;;;;;;;94.93;40.30;;;;;;;;;;5032370;28;20112;-63
2022/06/01 04:59:04;;;;;;;82.28;37.75;;;;;;;;;;5027120;28;20052;-64
2022/06/01 05:01:31;;;;;;;100.07;39.22;;;;;;;;;;5026639;28;20047;-64
2022/06/01 05:03:58;;;;;;;95.80;39.00;;;;;;;;;;5027297;28;20099;-61
2022/06/01 05:06:24;;;;;;;104.95;38.60;;;;;;;;;;5027068;28;20048;-63
2022/06/01 05:08:51;;;;;;;99.72;38.45;;;;;;;;;;5030343;28;20073;-63
2022/06/01 05:11:18;;;;;;;92.53;37.65;;;;;;;;;;5028774;28;20041;-63
2022/06/01 05:13:46;;;;;;;96.22;40.67;;;;;;;;;;5026459;28;20033;-63
2022/06/01 05:16:13;;;;;;;88.00;37.83;;;;;;;;;;5025598;28;20065;-63
2022/06/01 05:18:39;;;;;;;74.25;34.92;;;;;;;;;;5027483;28;20048;-63
2022/06/01 05:21:06;;;;;;;82.20;34.70;;;;;;;;;;5027136;28;20065;-63
2022/06/01 05:23:32;;;;;;;82.40;36.05;;;;;;;;;;5032137;28;20530;-63
2022/06/01 05:25:59;;;;;;;77.80;35.25;;;;;;;;;;5027384;28;20037;-62
2022/06/01 05:28:27;;;;;;;60.47;29.52;;;;;;;;;;5027539;28;20044;-63
2022/06/01 05:31:00;;;;;;;67.90;32.25;;;;;;;;;;5027318;28;20116;-64
2022/06/01 05:33:27;;;;;;;77.18;32.28;;;;;;;;;;5027150;28;20096;-63
2022/06/01 05:35:54;;;;;;;80.25;34.63;;;;;;;;;;5029790;28;20095;-63
2022/06/01 05:38:20;;;;;;;58.10;30.80;;;;;;;;;;5029429;28;20100;-63
2022/06/01 05:40:47;;;;;;;63.15;30.58;;;;;;;;;;5026868;28;20045;-63
2022/06/01 05:43:14;;;;;;;70.53;32.00;;;;;;;;;;5024484;28;20502;-63
2022/06/01 05:45:41;;;;;;;61.60;29.98;;;;;;;;;;5027390;28;20034;-63
2022/06/01 05:48:09;;;;;;;70.75;37.55;;;;;;;;;;5027350;28;20087;-63
2022/06/01 05:50:35;;;;;;;75.95;37.15;;;;;;;;;;5031417;28;20391;-62
2022/06/01 05:53:02;;;;;;;76.07;34.25;;;;;;;;;;5026818;28;20083;-63
2022/06/01 05:55:29;;;;;;;50.85;28.20;;;;;;;;;;5026141;28;20033;-62
2022/06/01 05:57:55;;;;;;;64.50;29.02;;;;;;;;;;5027360;28;20049;-63
2022/06/01 06:00:22;;;;;;;64.60;32.08;;;;;;;;;;5027535;28;20040;-63
2022/06/01 06:02:48;;;;;;;68.85;33.00;;;;;;;;;;5030373;28;20053;-63
2022/06/01 06:08:00;;;;;;;57.83;30.10;;;;;;;;;;5027407;28;20045;-63
2022/06/01 06:10:27;;;;;;;60.28;32.15;;;;;;;;;;5026914;28;20500;-63
2022/06/01 06:12:54;;;;;;;53.90;30.27;;;;;;;;;;5027214;28;20065;-63
2022/06/01 06:15:20;;;;;;;62.40;33.90;;;;;;;;;;5027648;28;20117;-62
2022/06/01 06:17:52;;;;;;;95.07;39.15;;;;;;;;;;5030148;28;20128;-63
2022/06/01 06:20:19;;;;;;;100.97;44.35;;;;;;;;;;5029200;28;20516;-62
2022/06/01 06:22:45;;;;;;;97.38;41.42;;;;;;;;;;5027097;28;20088;-63
2022/06/01 06:25:12;;;;;;;75.38;37.05;;;;;;;;;;5027474;28;20034;-63
2022/06/01 06:27:38;;;;;;;68.03;34.28;;;;;;;;;;5030368;28;20049;-63
2022/06/01 06:30:05;;;;;;;65.05;30.92;;;;;;;;;;5032773;28;20061;-63
2022/06/01 06:32:32;;;;;;;67.95;33.13;;;;;;;;;;5034548;28;20087;-63
2022/06/01 06:34:59;;;;;;;70.95;33.70;;;;;;;;;;5030830;28;20065;-63
2022/06/01 06:37:25;;;;;;;90.22;41.10;;;;;;;;;;5030910;28;20056;-63
2022/06/01 06:39:52;;;;;;;79.32;38.80;;;;;;;;;;5030170;28;20040;-63
2022/06/01 06:42:18;;;;;;;67.38;34.42;;;;;;;;;;5031098;28;20124;-63
2022/06/01 06:44:45;;;;;;;81.25;38.60;;;;;;;;;;5035222;28;20080;-63
2022/06/01 06:47:11;;;;;;;81.60;38.58;;;;;;;;;;5031602;28;20453;-64
2022/06/01 06:49:38;;;;;;;83.28;37.28;;;;;;;;;;5028923;28;20099;-64
2022/06/01 06:52:05;;;;;;;81.20;39.63;;;;;;;;;;5031045;28;20472;-63
2022/06/01 06:54:33;;;;;;;82.88;40.70;;;;;;;;;;5031658;28;20050;-63
2022/06/01 06:56:59;;;;;;;107.13;42.10;;;;;;;;;;5032462;28;20046;-63
2022/06/01 06:59:26;;;;;;;77.00;37.53;;;;;;;;;;5033790;28;20060;-63
2022/06/01 07:01:53;;;;;;;79.78;38.35;;;;;;;;;;5034599;28;20044;-63
2022/06/01 07:04:19;;;;;;;99.60;43.58;;;;;;;;;;5029905;28;20037;-63
2022/06/01 07:06:46;;;;;;;90.72;39.08;;;;;;;;;;5029969;28;20379;-63
2022/06/01 07:09:12;;;;;;;94.07;39.65;;;;;;;;;;5031240;28;20038;-64
2022/06/01 07:11:39;;;;;;;109.50;44.25;;;;;;;;;;5035113;28;20041;-63
2022/06/01 07:14:05;;;;;;;119.65;49.10;;;;;;;;;;5030415;28;20049;-63
2022/06/01 07:16:33;;;;;;;107.07;42.92;;;;;;;;;;5030202;28;20068;-63
2022/06/01 07:19:01;;;;;;;138.07;50.10;;;;;;;;;;5029047;28;20391;-63
2022/06/01 07:21:28;;;;;;;125.13;48.35;;;;;;;;;;5029842;28;20364;-64
2022/06/01 07:23:58;;;;;;;104.35;41.42;;;;;;;;;;5031783;28;20498;-64
2022/06/01 07:26:29;;;;;;;81.10;35.45;;;;;;;;;;5032385;28;20041;-64
2022/06/01 07:28:56;;;;;;;127.03;49.53;;;;;;;;;;5030284;28;20125;-64
2022/06/01 07:31:22;;;;;;;164.38;56.45;;;;;;;;;;5029729;28;20057;-64
2022/06/01 07:33:51;;;;;;;124.95;48.10;;;;;;;;;;5030069;28;20383;-63
2022/06/01 07:36:18;;;;;;;122.90;49.25;;;;;;;;;;5025422;28;20041;-64
2022/06/01 07:44:20;;;;;;;135.43;49.75;;;;;;;;;;5030640;28;20042;-63
2022/06/01 07:46:47;;;;;;;125.38;49.90;;;;;;;;;;5027208;28;20046;-63
2022/06/01 07:49:15;;;;;;;93.53;40.40;;;;;;;;;;5028618;28;20498;-63
2022/06/01 07:52:02;;;;;;;89.22;37.08;;;;;;;;;;5028684;28;20058;-63
2022/06/01 07:54:29;;;;;;;87.78;36.55;;;;;;;;;;5027465;28;20073;-63
2022/06/01 07:56:56;;;;;;;133.93;44.00;;;;;;;;;;5029314;28;20064;-63
2022/06/01 07:59:22;;;;;;;112.85;44.05;;;;;;;;;;5030410;28;20486;-63
2022/06/01 08:01:49;;;;;;;90.50;39.50;;;;;;;;;;5027847;28;20065;-63
2022/06/01 08:04:16;;;;;;;101.05;41.05;;;;;;;;;;5028359;28;20037;-63
2022/06/01 08:06:43;;;;;;;69.45;32.08;;;;;;;;;;5029450;28;20046;-63
2022/06/01 08:09:25;;;;;;;75.97;31.38;;;;;;;;;;5028743;28;20124;-63
2022/06/01 08:14:37;;;;;;;74.05;32.58;;;;;;;;;;5032052;28;20087;-63
2022/06/01 08:17:04;;;;;;;85.85;35.50;;;;;;;;;;5028456;28;20041;-63
2022/06/01 08:19:30;;;;;;;79.45;32.85;;;;;;;;;;5027129;28;20540;-63
2022/06/01 08:21:57;;;;;;;64.70;29.25;;;;;;;;;;5026068;28;20466;-63
2022/06/01 08:24:24;;;;;;;62.05;29.67;;;;;;;;;;5028586;28;20069;-63
2022/06/01 08:26:51;;;;;;;60.80;28.83;;;;;;;;;;5031224;28;20077;-64
2022/06/01 08:29:17;;;;;;;67.28;29.20;;;;;;;;;;5031496;28;20735;-63
2022/06/01 08:31:44;;;;;;;58.97;29.40;;;;;;;;;;5028142;28;20030;-63
2022/06/01 08:34:15;;;;;;;88.38;37.25;;;;;;;;;;5030222;28;20071;-64
2022/06/01 08:36:41;;;;;;;72.05;29.88;;;;;;;;;;5028857;28;20046;-64
2022/06/01 08:39:08;;;;;;;63.13;27.85;;;;;;;;;;5029578;28;20050;-63
2022/06/01 08:41:35;;;;;;;53.58;27.48;;;;;;;;;;5033576;28;20124;-63
2022/06/01 08:44:05;;;;;;;90.22;34.08;;;;;;;;;;5031034;28;20481;-63
2022/06/01 08:46:32;;;;;;;81.20;34.70;;;;;;;;;;5028645;28;20046;-64
2022/06/01 08:49:01;;;;;;;52.47;25.73;;;;;;;;;;5032645;28;20064;-63
2022/06/01 08:51:29;;;;;;;58.25;25.88;;;;;;;;;;5028427;28;20120;-63
2022/06/01 08:54:00;;;;;;;75.35;28.95;;;;;;;;;;5031599;28;20444;-65
2022/06/01 08:56:33;;;;;;;58.63;17.85;;;;;;;;;;5031294;28;20124;-56
2022/06/01 08:59:04;;;;;;;52.83;23.87;;;;;;;;;;5027100;28;20033;-57
2022/06/01 09:01:39;;;;;;;38.95;21.58;;;;;;;;;;5027942;28;20482;-62
2022/06/01 09:04:18;;;;;;;45.83;22.15;;;;;;;;;;5027662;28;20457;-62
2022/06/01 09:06:48;;;;;;;28.92;16.80;;;;;;;;;;5027683;28;20052;-62
2022/06/01 09:09:38;;;;;;;38.38;18.50;;;;;;;;;;5027943;28;20048;-60
2022/06/01 09:12:04;;;;;;;44.08;18.92;;;;;;;;;;5028350;28;20084;-60
2022/06/01 09:14:36;;;;;;;46.70;21.10;;;;;;;;;;5030558;28;20041;-62
2022/06/01 09:17:02;;;;;;;47.20;21.63;;;;;;;;;;5028250;28;20494;-63
2022/06/01 09:22:38;;;;;;;70.35;28.60;;;;;;;;;;5026979;28;20064;-61
2022/06/01 09:25:06;;;;;;;70.28;29.63;;;;;;;;;;5027757;28;20053;-60
2022/06/01 09:27:35;;;;;;;54.88;21.70;;;;;;;;;;5028845;28;20129;-59
2022/06/01 09:30:30;;;;;;;38.73;16.40;;;;;;;;;;5029001;28;20060;-61
2022/06/01 09:33:05;;;;;;;36.67;14.13;;;;;;;;;;5015818;28;20148;-61
2022/06/01 09:35:37;;;;;;;38.40;15.00;;;;;;;;;;5029831;28;20121;-61
2022/06/01 09:38:10;;;;;;;35.92;15.32;;;;;;;;;;5027080;28;20068;-61
2022/06/01 09:40:37;;;;;;;;;;;;;;;;;;5028399;28;20038;-61
2022/06/01 09:43:03;;;;;;;27.50;13.88;;;;;;;;;;5029998;28;20302;-64
2022/06/01 09:45:42;;;;;;;29.08;14.07;;;;;;;;;;5030675;28;20069;-61
2022/06/01 09:48:12;;;;;;;34.45;12.57;;;;;;;;;;5026570;28;20050;-62
2022/06/01 09:50:41;;;;;;;26.27;11.68;;;;;;;;;;5027061;28;20454;-62
2022/06/01 09:53:11;;;;;;;24.70;10.80;;;;;;;;;;5026224;28;20045;-61
2022/06/01 09:55:49;;;;;;;21.88;10.70;;;;;;;;;;5026407;28;20073;-61
2022/06/01 10:06:05;;;;;;;21.73;10.13;;;;;;;;;;5026270;28;20061;-61
2022/06/01 10:06:51;;;;;;;21.58;9.15;;;;;;;;;;5026653;28;20041;-60
2022/06/01 10:09:28;;;;;;;20.00;9.50;;;;;;;;;;5026741;28;20041;-61
2022/06/01 10:11:56;;;;;;;29.60;9.32;;;;;;;;;;5026707;28;20080;-61
2022/06/01 10:14:25;;;;;;;31.60;9.55;;;;;;;;;;5028343;28;20054;-60
2022/06/01 10:16:55;;;;;;;20.08;7.85;;;;;;;;;;5026659;28;20513;-61
2022/06/01 10:19:29;;;;;;;22.13;7.82;;;;;;;;;;5026246;28;20037;-61
2022/06/01 10:22:09;;;;;;;32.50;7.93;;;;;;;;;;5025782;28;20082;-60
2022/06/01 10:24:41;;;;;;;26.15;7.40;;;;;;;;;;5024828;28;20518;-60
2022/06/01 10:27:10;;;;;;;30.98;7.93;;;;;;;;;;5027292;28;20076;-61
2022/06/01 10:29:40;;;;;;;20.77;6.18;;;;;;;;;;5029786;28;20046;-64
2022/06/01 10:32:10;;;;;;;20.10;7.63;;;;;;;;;;5025932;28;20044;-65
2022/06/01 10:34:47;;;;;;;12.75;5.57;;;;;;;;;;5026133;28;20521;-63
2022/06/01 10:37:13;;;;;;;17.67;6.25;;;;;;;;;;5027083;28;20541;-64
2022/06/01 10:39:44;;;;;;;11.98;4.78;;;;;;;;;;5029005;28;20089;-63
2022/06/01 10:42:10;;;;;;;18.52;5.68;;;;;;;;;;5027787;28;20479;-63
2022/06/01 10:44:37;;;;;;;25.88;6.30;;;;;;;;;;5030558;28;20041;-63
2022/06/01 10:47:26;;;;;;;22.17;5.97;;;;;;;;;;5026274;28;20129;-62
2022/06/01 10:50:00;;;;;;;23.48;5.75;;;;;;;;;;5025846;28;20052;-61
2022/06/01 10:52:30;;;;;;;16.42;5.60;;;;;;;;;;5031117;28;20042;-61
2022/06/01 10:55:06;;;;;;;26.58;6.45;;;;;;;;;;5028826;28;20212;-63
2022/06/01 10:57:35;;;;;;;23.00;6.38;;;;;;;;;;5025301;28;20498;-69
2022/06/01 11:00:03;;;;;;;28.85;5.85;;;;;;;;;;5028391;28;20045;-61
2022/06/01 11:02:29;;;;;;;34.60;6.53;;;;;;;;;;5028499;28;20045;-62
2022/06/01 11:05:14;;;;;;;16.83;4.63;;;;;;;;;;5027073;28;20482;-63
2022/06/01 11:07:49;;;;;;;17.95;4.95;;;;;;;;;;5026941;28;20048;-63
2022/06/01 11:10:22;;;;;;;12.40;3.80;;;;;;;;;;5026413;28;20045;-64
2022/06/01 11:13:00;;;;;;;20.85;4.38;;;;;;;;;;5028677;28;20405;-61
2022/06/01 11:15:30;;;;;;;7.38;3.20;;;;;;;;;;5030956;28;20045;-59
2022/06/01 11:18:02;;;;;;;26.63;4.75;;;;;;;;;;5032968;28;20045;-63
2022/06/01 11:20:48;;;;;;;9.88;3.15;;;;;;;;;;5033116;28;20482;-59
2022/06/01 11:23:14;;;;;;;11.57;3.20;;;;;;;;;;5030645;28;20080;-60
2022/06/01 11:25:50;;;;;;;13.57;3.55;;;;;;;;;;5030299;28;20049;-61
2022/06/01 11:28:28;;;;;;;18.70;3.95;;;;;;;;;;5030351;28;20072;-62
2022/06/01 11:30:59;;;;;;;16.40;3.63;;;;;;;;;;5030119;28;20150;-61
2022/06/01 11:33:29;;;;;;;12.00;3.25;;;;;;;;;;5030367;28;20129;-62
2022/06/01 11:36:07;;;;;;;16.33;3.63;;;;;;;;;;5032924;28;20030;-61
2022/06/01 11:38:39;;;;;;;18.73;3.17;;;;;;;;;;5033219;28;20383;-61
2022/06/01 11:41:05;;;;;;;19.85;3.95;;;;;;;;;;5029348;28;20052;-61
2022/06/01 11:43:38;;;;;;;48.70;4.72;;;;;;;;;;5030875;28;20080;-60
2022/06/01 11:46:15;;;;;;;24.75;4.47;;;;;;;;;;5030974;28;20528;-61
2022/06/01 11:48:46;;;;;;;19.48;3.60;;;;;;;;;;5028744;28;20406;-61
2022/06/01 11:51:14;;;;;;;21.52;3.85;;;;;;;;;;5029942;28;20057;-61
2022/06/01 11:53:41;;;;;;;23.10;3.90;;;;;;;;;;5033347;28;20045;-61
2022/06/01 11:56:27;;;;;;;15.00;3.22;;;;;;;;;;5029066;28;20052;-61
2022/06/01 11:59:02;;;;;;;27.95;4.25;;;;;;;;;;5029521;28;20103;-59
2022/06/01 12:01:32;;;;;;;14.10;3.10;;;;;;;;;;5029335;28;20030;-59
2022/06/01 12:03:59;;;;;;;19.75;3.38;;;;;;;;;;5027743;28;20045;-60
2022/06/01 12:06:58;;;;;;;16.13;3.30;;;;;;;;;;5030267;28;20107;-59
2022/06/01 12:09:40;;;;;;;17.48;3.65;;;;;;;;;;5005969;28;20196;-60
2022/06/01 12:12:07;;;;;;;36.38;4.97;;;;;;;;;;5005850;28;20069;-60
2022/06/01 12:14:38;;;;;;;25.85;4.10;;;;;;;;;;4999395;28;20497;-60
2022/06/01 12:17:23;;;;;;;18.35;3.53;;;;;;;;;;4982313;28;20114;-59
2022/06/01 12:19:51;;;;;;;10.60;2.55;;;;;;;;;;4995754;28;20138;-60
2022/06/01 12:28:35;;;;;;;20.17;3.80;;;;;;;;;;4999289;28;20062;-60
2022/06/01 12:31:10;;;;;;;31.08;4.50;;;;;;;;;;5003624;28;20105;-60
2022/06/01 12:33:55;;;;;;;14.77;3.40;;;;;;;;;;4999853;28;20048;-60
2022/06/01 12:36:21;;;;;;;17.95;3.63;;;;;;;;;;4998619;28;20537;-60
2022/06/01 12:38:48;;;;;;;8.05;2.45;;;;;;;;;;4991744;28;20057;-60
2022/06/01 12:41:17;;;;;;;12.55;3.40;;;;;;;;;;4995193;28;20625;-61
2022/06/01 12:43:52;;;;;;;11.63;2.92;;;;;;;;;;4995492;28;20505;-60
2022/06/01 12:46:21;;;;;;;8.25;2.13;;;;;;;;;;5020686;28;20042;-60
2022/06/01 12:48:48;;;;;;;8.43;1.85;;;;;;;;;;5027612;28;20036;-60
2022/06/01 12:51:15;;;;;;;19.63;2.88;;;;;;;;;;5029155;28;20056;-61
2022/06/01 12:53:41;;;;;;;25.05;3.15;;;;;;;;;;5030010;28;20603;-60
2022/06/01 12:56:19;;;;;;;29.75;4.00;;;;;;;;;;5026723;28;20042;-60
2022/06/01 12:58:48;;;;;;;29.23;4.07;;;;;;;;;;5027806;28;20110;-60
2022/06/01 13:01:27;;;;;;;9.32;2.30;;;;;;;;;;5028404;28;20113;-60
2022/06/01 13:03:54;;;;;;;;;;;;;;;;;;5028114;28;20041;-61
2022/06/01 13:06:22;;;;;;;22.98;3.55;;;;;;;;;;5027920;28;19921;-60
2022/06/01 13:08:56;;;;;;;22.88;4.03;;;;;;;;;;5032757;28;20485;-60
2022/06/01 13:11:26;;;;;;;17.23;2.97;;;;;;;;;;5029426;28;20096;-60
2022/06/01 13:13:56;;;;;;;18.75;2.55;;;;;;;;;;5027841;28;20040;-60
2022/06/01 13:16:32;;;;;;;10.35;1.67;;;;;;;;;;5027718;28;20099;-60
2022/06/01 13:18:58;;;;;;;13.90;2.08;;;;;;;;;;5027788;28;20039;-60
2022/06/01 13:21:30;;;;;;;12.00;1.98;;;;;;;;;;5027566;28;20048;-60
2022/06/01 13:24:02;;;;;;;19.90;2.87;;;;;;;;;;5031649;28;20105;-60
2022/06/01 13:26:35;;;;;;;12.15;2.05;;;;;;;;;;5032363;28;20095;-61
2022/06/01 13:29:09;;;;;;;34.85;4.25;;;;;;;;;;5027679;28;20046;-61
2022/06/01 13:31:37;;;;;;;11.55;2.22;;;;;;;;;;5028007;28;20382;-60
2022/06/01 13:34:05;;;;;;;42.40;5.47;;;;;;;;;;5029603;28;20513;-60
2022/06/01 13:36:36;;;;;;;18.80;3.03;;;;;;;;;;5027632;28;20034;-61
2022/06/01 13:39:08;;;;;;;27.58;4.03;;;;;;;;;;5030394;28;20041;-60
2022/06/01 13:41:36;;;;;;;23.25;3.90;;;;;;;;;;5030152;28;20049;-60
2022/06/01 13:44:09;;;;;;;15.30;2.53;;;;;;;;;;5027667;28;20481;-60
2022/06/01 13:46:41;;;;;;;15.00;2.58;;;;;;;;;;5027241;28;20415;-60
2022/06/01 13:49:12;;;;;;;13.40;2.55;;;;;;;;;;5026484;28;20064;-61
2022/06/01 13:51:47;;;;;;;8.63;2.08;;;;;;;;;;5027446;28;20076;-60
2022/06/01 13:54:34;;;;;;;15.32;2.78;;;;;;;;;;5028994;28;20383;-60
2022/06/01 13:57:14;;;;;;;28.95;4.75;;;;;;;;;;5027988;28;20069;-61
2022/06/01 13:59:57;;;;;;;15.52;3.00;;;;;;;;;;5030090;28;20045;-60
2022/06/01 14:02:32;;;;;;;33.30;4.38;;;;;;;;;;5027338;28;20076;-60
2022/06/01 14:05:00;;;;;;;21.52;3.30;;;;;;;;;;5026462;28;20117;-60
2022/06/01 14:07:34;;;;;;;22.48;3.67;;;;;;;;;;5026409;28;20120;-60
2022/06/01 14:10:00;;;;;;;26.25;3.45;;;;;;;;;;5027534;28;20065;-61
2022/06/01 14:12:27;;;;;;;12.10;2.22;;;;;;;;;;5027341;28;20030;-60
2022/06/01 14:14:55;;;;;;;25.38;4.20;;;;;;;;;;5030728;28;20052;-60
2022/06/01 14:17:23;;;;;;;42.97;5.50;;;;;;;;;;5026431;28;20048;-60
2022/06/01 14:19:50;;;;;;;15.27;2.75;;;;;;;;;;5026449;28;20088;-60
2022/06/01 14:22:16;;;;;;;15.25;2.65;;;;;;;;;;5025317;28;20042;-60
2022/06/01 14:30:15;;;;;;;18.35;2.72;;;;;;;;;;5027275;28;20046;-60
2022/06/01 14:32:45;;;;;;;25.30;3.65;;;;;;;;;;5023403;28;20103;-60
2022/06/01 14:35:12;;;;;;;19.23;2.65;;;;;;;;;;5026256;28;20069;-60
2022/06/01 14:37:38;;;;;;;20.52;2.63;;;;;;;;;;5026774;28;20107;-61
2022/06/01 14:40:05;;;;;;;16.77;2.33;;;;;;;;;;5026606;28;20469;-60
2022/06/01 14:42:32;;;;;;;21.30;3.10;;;;;;;;;;5026594;28;20048;-60
2022/06/01 14:44:58;;;;;;;21.23;3.25;;;;;;;;;;5030047;28;20045;-60
2022/06/01 14:47:25;;;;;;;18.40;2.72;;;;;;;;;;5028686;28;20198;-60
2022/06/01 14:49:51;;;;;;;11.48;2.30;;;;;;;;;;5034166;28;20418;-60
2022/06/01 14:52:18;;;;;;;11.50;2.45;;;;;;;;;;5030301;28;20408;-60
2022/06/01 14:54:44;;;;;;;24.02;3.70;;;;;;;;;;5030289;28;20084;-60
2022/06/01 14:57:11;;;;;;;29.25;4.90;;;;;;;;;;5031349;28;20402;-60
2022/06/01 14:59:38;;;;;;;18.17;3.72;;;;;;;;;;5033197;28;20053;-60
2022/06/01 15:02:05;;;;;;;30.00;4.00;;;;;;;;;;5028592;28;20037;-61
2022/06/01 15:04:38;;;;;;;16.92;2.83;;;;;;;;;;5029048;28;20045;-60
2022/06/01 15:07:05;;;;;;;;;;;;;;;;;;5030410;28;20037;-61
2022/06/01 15:09:32;;;;;;;12.50;2.03;;;;;;;;;;5029792;28;19928;-60
2022/06/01 15:11:58;;;;;;;32.05;4.20;;;;;;;;;;5033580;28;20508;-60
2022/06/01 15:14:25;;;;;;;20.10;2.85;;;;;;;;;;5031105;28;20522;-70
2022/06/01 15:16:55;;;;;;;13.32;2.30;;;;;;;;;;5031011;28;20044;-67